OICK  Khoram Abad Airport

Add Bookmark

Iran

Status IATA
Operational KHD
Latitude Longitude
33° 26' 7" N 48° 16' 58" E
33.435398 48.282902
Local (DST + 5) UTC (GMT + 4)
Oct 31, 2014 06:54 Oct 31, 2014 15:24
Sunrise-Sunset Local UTC
Begin Civil Twilight 06:07 02:37
Sunrise 06:33 03:03
Sunset 05:27 13:57
End Civil Twilight 05:53 14:23

Current Weather

METAR Observed VFR
OICK 311450Z 10006KT 9999 FEW035CB SCT040 BKN090 13/08 Q1015 Fri, Oct 31, 2014 @ 14:50 UTC
(34 Minutes ago)
Visual Flight Rules
Wind Visibility Clouds Conditions
100° at 6 knots (11 kph) 10 km or more
  • Few at 3,500' AGL
  • Scattered at 4,000' AGL
  • Broken at 9,000' AGL
  • No significant weather
Temperatures Readings Precipitation
Current Temp 13°C (55°F)
Dewpoint 8°C (46°F)
Humidity 72%
Altimeter 29.97"Hg
Sea Level Pressure 1015mb
Field Elevation 3789.37'
None Recorded

Additional weather within a 92.6km radius of OICK

Map ICAO Location
OICJ 67.2km N (040°)

24 Hour Weather History

Loading
-

24 Hour Weather Graphs

Loading
-

CheckWX.com is intended as a tool to help pilots better visualize weather data. It is not intended as a substitute for an official weather briefing obtained from a Flight Service Station. CheckWX.com does not meet the FAA requirements for an official pre-flight weather briefing. Therefore, it's important that pilots still call and obtain an official FSS pre-flight weather briefing.